createdAt,value
2023-05-24T00:02:17.711Z,14.10
2023-05-24T00:04:45.597Z,14.10
2023-05-24T00:07:12.590Z,14.10
2023-05-24T00:09:39.429Z,14.10
2023-05-24T00:12:06.395Z,14.00
2023-05-24T00:14:33.147Z,14.00
2023-05-24T00:16:59.907Z,14.00
2023-05-24T00:19:27.434Z,13.90
2023-05-24T00:21:54.194Z,13.90
2023-05-24T00:24:21.081Z,13.90
2023-05-24T00:26:50.376Z,13.80
2023-05-24T00:29:17.045Z,13.80
2023-05-24T00:31:43.807Z,13.70
2023-05-24T00:34:10.904Z,13.70
2023-05-24T00:36:38.186Z,13.70
2023-05-24T00:39:05.125Z,13.60
2023-05-24T00:41:31.937Z,13.60
2023-05-24T00:44:00.877Z,13.60
2023-05-24T00:46:29.924Z,13.50
2023-05-24T00:48:57.621Z,13.50
2023-05-24T00:51:26.495Z,13.40
2023-05-24T00:53:53.860Z,13.40
2023-05-24T00:56:21.091Z,13.40
2023-05-24T00:58:50.435Z,13.30
2023-05-24T01:01:17.319Z,13.30
2023-05-24T01:03:44.717Z,13.20
2023-05-24T01:06:15.797Z,13.20
2023-05-24T01:08:51.389Z,13.20
2023-05-24T01:11:35.655Z,13.20
2023-05-24T01:14:29.537Z,13.10
2023-05-24T01:17:24.131Z,13.10
2023-05-24T01:20:08.874Z,13.10
2023-05-24T01:22:58.575Z,13.10
2023-05-24T01:25:47.426Z,13.10
2023-05-24T01:28:17.515Z,13.10
2023-05-24T01:30:44.869Z,13.10
2023-05-24T01:33:11.940Z,13.10
2023-05-24T01:35:41.367Z,13.00
2023-05-24T01:38:08.893Z,13.00
2023-05-24T01:40:37.844Z,13.00
2023-05-24T01:43:08.858Z,13.00
2023-05-24T01:45:48.452Z,13.00
2023-05-24T01:48:40.617Z,13.00
2023-05-24T01:51:11.521Z,13.00
2023-05-24T01:53:46.528Z,13.00
2023-05-24T01:56:15.793Z,13.00
2023-05-24T01:58:45.643Z,13.00
2023-05-24T02:01:15.478Z,13.00
2023-05-24T02:03:42.215Z,13.00
2023-05-24T02:06:10.559Z,13.00
2023-05-24T02:08:37.304Z,13.00
2023-05-24T02:11:04.120Z,12.90
2023-05-24T02:13:30.847Z,12.90
2023-05-24T02:15:57.542Z,12.90
2023-05-24T02:18:24.296Z,12.90
2023-05-24T02:20:51.314Z,12.90
2023-05-24T02:23:17.983Z,12.90
2023-05-24T02:25:44.774Z,12.90
2023-05-24T02:28:11.436Z,12.90
2023-05-24T02:30:38.550Z,12.80
2023-05-24T02:33:05.612Z,12.80
2023-05-24T02:35:33.473Z,12.80
2023-05-24T02:38:01.479Z,12.70
2023-05-24T02:40:30.652Z,12.70
2023-05-24T02:42:57.548Z,12.70
2023-05-24T02:45:24.408Z,12.60
2023-05-24T02:47:51.156Z,12.60
2023-05-24T02:50:18.030Z,12.60
2023-05-24T02:52:47.161Z,12.60
2023-05-24T02:55:16.369Z,12.60
2023-05-24T02:57:43.056Z,12.60
2023-05-24T03:00:11.611Z,12.50
2023-05-24T03:02:38.585Z,12.50
2023-05-24T03:05:06.069Z,12.50
2023-05-24T03:07:32.827Z,12.50
2023-05-24T03:10:01.857Z,12.50
2023-05-24T03:12:28.583Z,12.40
2023-05-24T03:14:55.358Z,12.40
2023-05-24T03:17:22.088Z,12.40
2023-05-24T03:19:48.907Z,12.30
2023-05-24T03:22:15.699Z,12.30
2023-05-24T03:24:42.364Z,12.20
2023-05-24T03:27:09.036Z,12.20
2023-05-24T03:29:35.748Z,12.10
2023-05-24T03:32:02.603Z,12.10
2023-05-24T03:34:30.231Z,12.10
2023-05-24T03:36:56.995Z,12.10
2023-05-24T03:39:23.760Z,12.10
2023-05-24T03:41:52.775Z,12.10
2023-05-24T03:44:19.456Z,12.10
2023-05-24T03:46:46.192Z,12.10
2023-05-24T03:49:12.883Z,12.10
2023-05-24T03:51:39.597Z,12.10
2023-05-24T03:54:06.334Z,12.00
2023-05-24T03:56:33.002Z,12.00
2023-05-24T03:59:03.817Z,12.00
2023-05-24T04:01:35.249Z,12.00
2023-05-24T04:04:02.820Z,11.90
2023-05-24T04:06:30.230Z,11.90
2023-05-24T04:08:58.310Z,11.90
2023-05-24T04:11:28.430Z,11.90
2023-05-24T04:14:00.408Z,11.80
2023-05-24T04:16:28.016Z,11.80
2023-05-24T04:18:55.590Z,11.80
2023-05-24T04:21:23.285Z,11.80
2023-05-24T04:23:50.021Z,11.70
2023-05-24T04:26:17.663Z,11.80
2023-05-24T04:28:47.022Z,11.80
2023-05-24T04:31:16.349Z,11.80
2023-05-24T04:33:43.177Z,11.80
2023-05-24T04:36:11.400Z,11.80
2023-05-24T04:38:39.183Z,11.80
2023-05-24T04:41:06.602Z,11.80
2023-05-24T04:43:34.528Z,11.80
2023-05-24T04:46:01.691Z,11.70
2023-05-24T04:48:28.644Z,11.70
2023-05-24T04:50:56.378Z,11.70
2023-05-24T04:53:23.889Z,11.80
2023-05-24T04:55:52.555Z,11.80
2023-05-24T04:58:19.630Z,11.80
2023-05-24T05:00:46.387Z,11.80
2023-05-24T05:03:13.758Z,11.90
2023-05-24T05:05:40.651Z,11.90
2023-05-24T05:08:07.340Z,11.90
2023-05-24T05:10:34.045Z,12.00
2023-05-24T05:13:03.429Z,12.00
2023-05-24T05:15:30.707Z,12.10
2023-05-24T05:17:57.615Z,12.10
2023-05-24T05:20:25.027Z,12.10
2023-05-24T05:22:51.767Z,12.10
2023-05-24T05:25:21.197Z,12.10
2023-05-24T05:27:48.176Z,12.10
2023-05-24T05:30:15.175Z,12.10
2023-05-24T05:32:46.574Z,12.20
2023-05-24T05:35:13.536Z,12.20
2023-05-24T05:37:40.410Z,12.30
2023-05-24T05:40:07.962Z,12.40
2023-05-24T05:42:34.678Z,12.40
2023-05-24T05:45:01.374Z,12.40
2023-05-24T05:47:28.162Z,12.40
2023-05-24T05:49:54.951Z,12.50
2023-05-24T05:52:21.715Z,12.50
2023-05-24T05:54:48.522Z,12.50
2023-05-24T05:57:16.381Z,12.60
2023-05-24T05:59:43.155Z,12.50
2023-05-24T06:02:09.918Z,12.40
2023-05-24T06:04:36.773Z,12.40
2023-05-24T06:07:03.542Z,12.50
2023-05-24T06:09:30.516Z,12.50
2023-05-24T06:11:57.432Z,12.50
2023-05-24T06:14:25.190Z,12.60
2023-05-24T06:16:54.497Z,12.60
2023-05-24T06:19:23.903Z,12.70
2023-05-24T06:21:50.867Z,12.70
2023-05-24T06:24:21.590Z,12.80
2023-05-24T06:26:54.537Z,12.90
2023-05-24T06:29:21.857Z,13.00
2023-05-24T06:31:51.933Z,13.00
2023-05-24T06:34:21.141Z,13.00
2023-05-24T06:36:51.113Z,13.10
2023-05-24T06:39:18.115Z,13.00
2023-05-24T06:41:46.804Z,12.90
2023-05-24T06:44:13.709Z,12.90
2023-05-24T06:46:40.878Z,12.90
2023-05-24T06:49:07.638Z,12.90
2023-05-24T06:51:38.084Z,12.90
2023-05-24T06:54:04.824Z,12.80
2023-05-24T06:56:31.791Z,12.90
2023-05-24T06:58:59.406Z,13.00
2023-05-24T07:01:29.423Z,13.00
2023-05-24T07:03:56.309Z,13.10
2023-05-24T07:06:23.220Z,13.10
2023-05-24T07:08:49.944Z,13.20
2023-05-24T07:11:16.780Z,13.30
2023-05-24T07:13:43.703Z,13.40
2023-05-24T07:16:11.885Z,13.50
2023-05-24T07:18:38.856Z,13.50
2023-05-24T07:21:05.662Z,13.60
2023-05-24T07:23:32.470Z,13.70
2023-05-24T07:25:59.220Z,13.80
2023-05-24T07:28:26.050Z,13.70
2023-05-24T07:30:54.995Z,13.80
2023-05-24T07:33:22.010Z,14.00
2023-05-24T07:35:51.713Z,14.10
2023-05-24T07:38:18.858Z,14.10
2023-05-24T07:40:45.798Z,14.20
2023-05-24T07:43:12.712Z,14.20
2023-05-24T07:45:39.980Z,14.40
2023-05-24T07:48:07.127Z,14.40
2023-05-24T07:50:34.047Z,14.60
2023-05-24T07:53:00.879Z,14.70
2023-05-24T07:55:28.451Z,14.90
2023-05-24T07:57:56.791Z,14.90
2023-05-24T08:00:27.185Z,14.90
2023-05-24T08:02:54.090Z,15.00
2023-05-24T08:05:21.452Z,15.00
2023-05-24T08:07:50.073Z,15.00
2023-05-24T08:10:17.422Z,15.10
2023-05-24T08:12:44.628Z,15.20
2023-05-24T08:15:11.930Z,15.30
2023-05-24T08:17:43.526Z,15.40
2023-05-24T08:20:13.519Z,15.50
2023-05-24T08:22:40.320Z,15.40
2023-05-24T08:25:07.563Z,15.30
2023-05-24T08:27:37.130Z,15.20
2023-05-24T08:30:04.460Z,15.30
2023-05-24T08:32:32.302Z,15.30
2023-05-24T08:35:17.503Z,15.40
2023-05-24T08:37:46.251Z,15.50
2023-05-24T08:40:15.594Z,15.60
2023-05-24T08:42:42.617Z,15.80
2023-05-24T08:45:14.680Z,16.00
2023-05-24T08:47:42.604Z,16.00
2023-05-24T08:50:11.273Z,16.10
2023-05-24T08:52:39.918Z,16.20
2023-05-24T08:55:07.747Z,16.40
2023-05-24T08:57:41.241Z,16.50
2023-05-24T09:00:11.332Z,16.70
2023-05-24T09:02:42.694Z,16.80
2023-05-24T09:05:16.906Z,16.70
2023-05-24T09:07:45.328Z,16.60
2023-05-24T09:10:12.221Z,16.60
2023-05-24T09:12:44.192Z,16.70
2023-05-24T09:15:11.530Z,16.70
2023-05-24T09:17:41.655Z,16.80
2023-05-24T09:20:11.417Z,16.80
2023-05-24T09:22:42.634Z,17.00
2023-05-24T09:25:12.619Z,17.10
2023-05-24T09:27:39.457Z,17.30
2023-05-24T09:30:11.041Z,17.40
2023-05-24T09:32:38.667Z,17.50
2023-05-24T09:35:10.204Z,17.50
2023-05-24T09:37:39.106Z,17.50
2023-05-24T09:40:10.264Z,17.40
2023-05-24T09:42:38.114Z,17.40
2023-05-24T09:45:12.330Z,17.30
2023-05-24T09:47:45.417Z,17.30
2023-05-24T09:50:14.397Z,17.40
2023-05-24T09:52:42.103Z,17.60
2023-05-24T09:55:22.844Z,17.80
2023-05-24T09:58:03.012Z,17.90
2023-05-24T10:00:35.482Z,18.00
2023-05-24T10:03:07.532Z,18.00
2023-05-24T10:05:37.593Z,17.80
2023-05-24T10:08:05.159Z,17.90
2023-05-24T10:10:33.713Z,18.10
2023-05-24T10:13:01.803Z,18.10
2023-05-24T10:15:30.216Z,18.20
2023-05-24T10:17:57.905Z,18.30
2023-05-24T10:20:24.840Z,18.40
2023-05-24T10:23:03.610Z,18.70
2023-05-24T10:25:34.844Z,18.90
2023-05-24T10:28:12.855Z,19.00
2023-05-24T10:31:02.764Z,18.90
2023-05-24T10:33:32.495Z,19.00
2023-05-24T10:35:59.611Z,18.90
2023-05-24T10:38:26.515Z,18.80
2023-05-24T10:40:53.553Z,18.80
2023-05-24T10:43:22.981Z,18.80
2023-05-24T10:45:51.149Z,18.80
2023-05-24T10:48:36.156Z,18.90
2023-05-24T10:51:34.009Z,19.00
2023-05-24T10:54:20.000Z,19.20
2023-05-24T10:56:49.318Z,19.40
2023-05-24T10:59:35.081Z,19.50
2023-05-24T11:02:03.026Z,19.60
2023-05-24T11:04:36.940Z,19.80
2023-05-24T11:07:05.783Z,19.80
2023-05-24T11:09:38.144Z,19.70
2023-05-24T11:12:08.989Z,20.00
2023-05-24T11:14:39.950Z,20.20
2023-05-24T11:17:11.486Z,20.30
2023-05-24T11:19:55.795Z,20.30
2023-05-24T11:22:24.569Z,20.20
2023-05-24T11:24:57.125Z,20.10
2023-05-24T11:27:26.749Z,20.20
2023-05-24T11:29:54.140Z,20.30
2023-05-24T11:32:23.444Z,20.30
2023-05-24T11:34:51.070Z,20.20
2023-05-24T11:37:18.937Z,20.20
2023-05-24T11:39:54.872Z,20.30
2023-05-24T11:42:23.390Z,20.40
2023-05-24T11:44:50.681Z,20.60
2023-05-24T11:47:20.295Z,20.70
2023-05-24T11:49:50.568Z,20.70
2023-05-24T11:52:17.537Z,20.70
2023-05-24T11:54:46.733Z,20.70
2023-05-24T11:57:14.552Z,20.80
2023-05-24T11:59:41.723Z,20.70
2023-05-24T12:02:09.211Z,20.80
2023-05-24T12:04:36.185Z,20.80
2023-05-24T12:07:03.630Z,20.90
2023-05-24T12:09:32.972Z,20.90
2023-05-24T12:11:59.689Z,21.00
2023-05-24T12:14:31.420Z,21.00
2023-05-24T12:16:59.357Z,21.00
2023-05-24T12:19:34.115Z,21.00
2023-05-24T12:22:06.426Z,21.20
2023-05-24T12:24:33.997Z,21.30
2023-05-24T12:27:09.122Z,21.40
2023-05-24T12:29:40.140Z,21.50
2023-05-24T12:32:13.145Z,21.40
2023-05-24T12:34:42.467Z,21.50
2023-05-24T12:37:10.301Z,21.50
2023-05-24T12:39:37.880Z,21.50
2023-05-24T12:42:05.263Z,21.40
2023-05-24T12:44:37.186Z,21.40
2023-05-24T12:47:06.776Z,21.40
2023-05-24T12:49:34.098Z,21.40
2023-05-24T12:52:01.904Z,21.30
2023-05-24T12:54:29.440Z,21.20
2023-05-24T12:56:57.881Z,21.20
2023-05-24T12:59:27.449Z,21.30
2023-05-24T13:01:54.284Z,21.30
2023-05-24T13:04:22.968Z,21.30
2023-05-24T13:06:49.754Z,21.40
2023-05-24T13:09:22.092Z,21.50
2023-05-24T13:11:51.112Z,21.50
2023-05-24T13:14:20.060Z,21.40
2023-05-24T13:16:47.666Z,21.30
2023-05-24T13:19:15.096Z,21.40
2023-05-24T13:21:42.549Z,21.40
2023-05-24T13:24:12.447Z,21.50
2023-05-24T13:26:39.241Z,21.50
2023-05-24T13:31:40.712Z,21.50
2023-05-24T13:34:09.124Z,21.40
2023-05-24T13:36:38.113Z,21.30
2023-05-24T13:41:35.648Z,21.40
2023-05-24T13:44:02.643Z,21.40
2023-05-24T13:46:30.163Z,21.40
2023-05-24T13:48:57.346Z,21.40
2023-05-24T13:51:24.662Z,21.40
2023-05-24T13:53:55.404Z,21.30
2023-05-24T13:56:24.167Z,21.10
2023-05-24T13:58:52.004Z,21.20
2023-05-24T14:01:19.736Z,21.20
2023-05-24T14:03:46.664Z,21.30
2023-05-24T14:06:13.637Z,21.30
2023-05-24T14:08:40.690Z,21.30
2023-05-24T14:11:07.470Z,21.30
2023-05-24T14:16:06.772Z,21.30
2023-05-24T14:18:34.048Z,21.30
2023-05-24T14:21:01.000Z,21.30
2023-05-24T14:23:27.819Z,21.20
2023-05-24T14:25:54.728Z,21.20
2023-05-24T14:28:21.658Z,21.30
2023-05-24T14:30:48.361Z,21.10
2023-05-24T14:33:15.345Z,21.20
2023-05-24T14:35:42.479Z,21.20
2023-05-24T14:38:10.748Z,21.30
2023-05-24T14:40:39.768Z,21.40
2023-05-24T14:43:10.560Z,21.40
2023-05-24T14:45:41.766Z,21.50
2023-05-24T14:48:11.552Z,21.40
2023-05-24T14:50:39.990Z,21.30
2023-05-24T14:53:12.219Z,21.30
2023-05-24T14:55:41.698Z,21.40
2023-05-24T14:58:12.266Z,21.50
2023-05-24T15:00:40.333Z,21.40
2023-05-24T15:03:12.467Z,21.40
2023-05-24T15:05:40.260Z,21.40
2023-05-24T15:08:08.306Z,21.40
2023-05-24T15:10:40.443Z,21.40
2023-05-24T15:13:08.234Z,21.40
2023-05-24T15:15:36.499Z,21.40
2023-05-24T15:18:07.164Z,21.40
2023-05-24T15:20:35.670Z,21.20
2023-05-24T15:23:03.801Z,21.30
2023-05-24T15:25:30.658Z,21.30
2023-05-24T15:27:58.241Z,21.20
2023-05-24T15:30:25.267Z,21.10
2023-05-24T15:32:52.735Z,21.10
2023-05-24T15:35:22.438Z,21.20
2023-05-24T15:37:49.142Z,21.10
2023-05-24T15:40:18.720Z,21.00
2023-05-24T15:42:46.683Z,21.00
2023-05-24T15:45:14.376Z,21.10
2023-05-24T15:47:41.231Z,21.10
2023-05-24T15:50:09.052Z,21.10
2023-05-24T15:52:36.867Z,21.00
2023-05-24T15:55:05.054Z,20.60
2023-05-24T15:57:32.589Z,20.40
2023-05-24T15:59:59.685Z,20.20
2023-05-24T16:02:27.506Z,20.20
2023-05-24T16:04:55.465Z,20.20
2023-05-24T16:07:22.720Z,20.30
2023-05-24T16:09:53.209Z,20.30
2023-05-24T16:12:20.319Z,20.30
2023-05-24T16:14:47.085Z,20.20
2023-05-24T16:17:15.300Z,20.20
2023-05-24T16:19:47.133Z,20.10
2023-05-24T16:22:14.161Z,20.00
2023-05-24T16:24:43.299Z,19.90
2023-05-24T16:27:10.599Z,19.70
2023-05-24T16:29:37.903Z,19.60
2023-05-24T16:32:04.875Z,19.40
2023-05-24T16:34:38.769Z,19.30
2023-05-24T16:37:11.956Z,19.10
2023-05-24T16:39:38.703Z,18.70
2023-05-24T16:42:07.190Z,18.60
2023-05-24T16:44:33.970Z,18.50
2023-05-24T16:47:02.250Z,18.40
2023-05-24T16:49:29.151Z,18.40
2023-05-24T16:51:55.836Z,18.40
2023-05-24T16:54:22.724Z,18.20
2023-05-24T16:56:49.526Z,18.10
2023-05-24T16:59:17.169Z,18.00
2023-05-24T17:01:45.281Z,17.70
2023-05-24T17:04:12.432Z,17.70
2023-05-24T17:06:39.202Z,17.80
2023-05-24T17:09:08.780Z,17.80
2023-05-24T17:11:36.130Z,17.80
2023-05-24T17:14:03.287Z,17.90
2023-05-24T17:16:30.832Z,17.70
2023-05-24T17:19:00.149Z,17.70
2023-05-24T17:21:29.885Z,17.70
2023-05-24T17:23:56.811Z,17.70
2023-05-24T17:26:24.386Z,17.60
2023-05-24T17:28:51.791Z,17.60
2023-05-24T17:31:21.703Z,17.50
2023-05-24T17:33:48.609Z,17.50
2023-05-24T17:36:15.493Z,17.40
2023-05-24T17:38:42.571Z,17.40
2023-05-24T17:41:09.983Z,17.40
2023-05-24T17:43:39.009Z,17.40
2023-05-24T17:46:07.051Z,17.20
2023-05-24T17:48:36.025Z,17.20
2023-05-24T17:51:05.212Z,17.00
2023-05-24T17:53:35.571Z,17.00
2023-05-24T17:56:03.803Z,17.00
2023-05-24T17:58:36.323Z,16.90
2023-05-24T18:01:07.993Z,16.70
2023-05-24T18:03:37.082Z,16.70
2023-05-24T18:06:07.150Z,16.60
2023-05-24T18:08:37.389Z,16.60
2023-05-24T18:11:08.897Z,16.60
2023-05-24T18:13:38.289Z,16.60
2023-05-24T18:16:09.908Z,16.50
2023-05-24T18:18:37.770Z,16.40
2023-05-24T18:21:05.590Z,16.30
2023-05-24T18:23:37.205Z,16.30
2023-05-24T18:26:08.229Z,16.30
2023-05-24T18:28:38.740Z,16.40
2023-05-24T18:31:14.811Z,16.30
2023-05-24T18:33:42.078Z,16.30
2023-05-24T18:36:12.927Z,16.30
2023-05-24T18:38:40.272Z,16.20
2023-05-24T18:41:11.899Z,16.20
2023-05-24T18:43:39.578Z,16.10
2023-05-24T18:46:06.505Z,16.00
2023-05-24T18:48:33.317Z,16.00
2023-05-24T18:51:02.437Z,15.90
2023-05-24T18:53:31.308Z,15.90
2023-05-24T18:56:01.213Z,15.90
2023-05-24T18:58:28.952Z,15.90
2023-05-24T19:00:56.106Z,15.80
2023-05-24T19:03:23.139Z,15.80
2023-05-24T19:05:51.959Z,15.80
2023-05-24T19:08:18.868Z,15.80
2023-05-24T19:10:45.689Z,15.80
2023-05-24T19:13:12.491Z,15.80
2023-05-24T19:15:39.287Z,15.80
2023-05-24T19:18:08.681Z,15.80
2023-05-24T19:20:36.254Z,15.70
2023-05-24T19:23:03.093Z,15.70
2023-05-24T19:25:31.251Z,15.60
2023-05-24T19:28:00.528Z,15.60
2023-05-24T19:30:27.863Z,15.60
2023-05-24T19:32:57.130Z,15.50
2023-05-24T19:35:24.262Z,15.50
2023-05-24T19:37:52.158Z,15.50
2023-05-24T19:40:19.545Z,15.50
2023-05-24T19:42:47.694Z,15.50
2023-05-24T19:45:15.753Z,15.60
2023-05-24T19:47:43.710Z,15.50
2023-05-24T19:50:12.265Z,15.50
2023-05-24T19:52:39.502Z,15.40
2023-05-24T19:55:08.478Z,15.50
2023-05-24T19:57:36.019Z,15.40
2023-05-24T20:00:04.776Z,15.40
2023-05-24T20:02:36.399Z,15.30
2023-05-24T20:05:04.470Z,15.30
2023-05-24T20:07:31.586Z,15.20
2023-05-24T20:09:58.433Z,15.20
2023-05-24T20:12:25.874Z,15.20
2023-05-24T20:14:52.734Z,15.10
2023-05-24T20:17:24.217Z,15.10
2023-05-24T20:19:51.718Z,15.10
2023-05-24T20:22:18.546Z,15.10
2023-05-24T20:24:45.637Z,15.00
2023-05-24T20:27:12.392Z,15.00
2023-05-24T20:29:39.162Z,15.00
2023-05-24T20:32:06.221Z,15.00
2023-05-24T20:34:33.067Z,15.00
2023-05-24T20:37:00.977Z,15.00
2023-05-24T20:39:28.831Z,15.00
2023-05-24T20:41:58.460Z,14.90
2023-05-24T20:44:25.716Z,14.90
2023-05-24T20:46:52.489Z,14.90
2023-05-24T20:49:25.151Z,14.80
2023-05-24T20:51:54.173Z,14.90
2023-05-24T20:54:21.945Z,14.80
2023-05-24T20:56:48.822Z,14.80
2023-05-24T20:59:16.869Z,14.80
2023-05-24T21:01:43.607Z,14.70
2023-05-24T21:04:10.947Z,14.70
2023-05-24T21:06:40.507Z,14.70
2023-05-24T21:09:10.251Z,14.60
2023-05-24T21:11:36.972Z,14.60
2023-05-24T21:14:06.056Z,14.60
2023-05-24T21:16:33.269Z,14.50
2023-05-24T21:19:02.994Z,14.40
2023-05-24T21:21:29.769Z,14.40
2023-05-24T21:23:56.700Z,14.40
2023-05-24T21:26:23.726Z,14.30
2023-05-24T21:28:52.998Z,14.30
2023-05-24T21:31:20.755Z,14.20
2023-05-24T21:33:47.632Z,14.20
2023-05-24T21:36:18.445Z,14.20
2023-05-24T21:38:47.602Z,14.10
2023-05-24T21:41:19.112Z,14.10
2023-05-24T21:43:45.873Z,14.10
2023-05-24T21:46:12.634Z,14.10
2023-05-24T21:48:39.316Z,14.10
2023-05-24T21:51:06.222Z,14.00
2023-05-24T21:53:34.887Z,14.00
2023-05-24T21:56:02.618Z,14.00
2023-05-24T21:58:29.426Z,13.90
2023-05-24T22:00:56.217Z,13.90
2023-05-24T22:03:25.334Z,13.90
2023-05-24T22:05:52.272Z,13.90
2023-05-24T22:08:19.585Z,13.90
2023-05-24T22:10:46.907Z,13.80
2023-05-24T22:13:14.351Z,13.70
2023-05-24T22:15:42.008Z,13.70
2023-05-24T22:18:09.144Z,13.60
2023-05-24T22:20:36.772Z,13.60
2023-05-24T22:23:06.768Z,13.60
2023-05-24T22:25:33.511Z,13.60
2023-05-24T22:28:00.650Z,13.50
2023-05-24T22:30:31.998Z,13.50
2023-05-24T22:33:01.387Z,13.50
2023-05-24T22:35:28.803Z,13.50
2023-05-24T22:37:57.768Z,13.40
2023-05-24T22:40:26.944Z,13.40
2023-05-24T22:42:53.668Z,13.40
2023-05-24T22:45:20.359Z,13.40
2023-05-24T22:47:49.155Z,13.40
2023-05-24T22:50:16.191Z,13.30
2023-05-24T22:52:43.013Z,13.30
2023-05-24T22:55:13.169Z,13.30
2023-05-24T22:57:39.967Z,13.20
2023-05-24T23:00:08.195Z,13.20
2023-05-24T23:02:36.377Z,13.20
2023-05-24T23:05:03.992Z,13.20
2023-05-24T23:07:31.012Z,13.10
2023-05-24T23:09:59.730Z,13.10
2023-05-24T23:12:26.636Z,13.10
2023-05-24T23:14:54.160Z,13.10
2023-05-24T23:17:23.745Z,13.00
2023-05-24T23:19:50.921Z,13.00
2023-05-24T23:22:23.457Z,13.00
2023-05-24T23:24:50.190Z,13.00
2023-05-24T23:27:17.110Z,12.90
2023-05-24T23:29:44.146Z,12.90
2023-05-24T23:32:11.368Z,12.80
2023-05-24T23:34:38.323Z,12.80
2023-05-24T23:37:05.703Z,12.70
2023-05-24T23:39:32.488Z,12.70
2023-05-24T23:42:02.455Z,12.60
2023-05-24T23:44:29.281Z,12.60
2023-05-24T23:46:57.051Z,12.50
2023-05-24T23:49:24.267Z,12.50
2023-05-24T23:51:51.300Z,12.50
2023-05-24T23:54:19.353Z,12.40
2023-05-24T23:56:46.457Z,12.40
2023-05-24T23:59:13.234Z,12.40
